createdAt,value
2022-10-11T00:01:22.365Z,78.21
2022-10-11T00:03:49.027Z,77.82
2022-10-11T00:06:15.852Z,77.93
2022-10-11T00:08:42.437Z,75.31
2022-10-11T00:11:10.426Z,75.20
2022-10-11T00:13:37.086Z,75.16
2022-10-11T00:16:11.911Z,77.09
2022-10-11T00:18:39.159Z,74.61
2022-10-11T00:21:09.559Z,73.58
2022-10-11T00:23:37.088Z,72.98
2022-10-11T00:26:06.861Z,72.78
2022-10-11T00:28:34.025Z,72.33
2022-10-11T00:31:01.081Z,72.72
2022-10-11T00:33:28.094Z,73.07
2022-10-11T00:35:54.735Z,71.49
2022-10-11T00:38:21.359Z,69.50
2022-10-11T00:40:47.974Z,69.14
2022-10-11T00:43:23.003Z,68.19
2022-10-11T00:45:58.471Z,69.04
2022-10-11T00:48:42.448Z,70.71
2022-10-11T00:51:18.467Z,68.42
2022-10-11T00:53:47.695Z,69.52
2022-10-11T00:56:24.019Z,68.49
2022-10-11T00:58:51.557Z,67.67
2022-10-11T01:01:18.251Z,67.41
2022-10-11T01:03:45.112Z,66.65
2022-10-11T01:06:11.757Z,66.39
2022-10-11T01:08:38.949Z,65.96
2022-10-11T01:11:06.356Z,65.35
2022-10-11T01:13:36.240Z,65.22
2022-10-11T01:16:12.535Z,65.34
2022-10-11T01:18:59.003Z,65.75
2022-10-11T01:22:06.403Z,66.35
2022-10-11T01:24:45.087Z,66.84
2022-10-11T01:27:38.899Z,65.64
2022-10-11T01:30:05.870Z,65.64
2022-10-11T01:32:43.203Z,65.57
2022-10-11T01:35:28.176Z,65.70
2022-10-11T01:38:04.878Z,65.30
2022-10-11T01:40:42.177Z,65.34
2022-10-11T01:43:10.056Z,65.41
2022-10-11T01:45:37.865Z,65.74
2022-10-11T01:48:08.866Z,65.57
2022-10-11T01:50:42.690Z,65.47
2022-10-11T01:53:31.110Z,65.19
2022-10-11T01:56:14.337Z,67.05
2022-10-11T01:59:09.319Z,65.68
2022-10-11T02:02:14.526Z,64.82
2022-10-11T02:04:48.333Z,64.49
2022-10-11T02:07:21.622Z,64.26
2022-10-11T02:09:56.023Z,64.40
2022-10-11T02:12:37.327Z,63.62
2022-10-11T02:15:09.428Z,65.96
2022-10-11T02:17:44.663Z,66.19
2022-10-11T02:20:17.402Z,66.69
2022-10-11T02:22:48.245Z,66.05
2022-10-11T02:25:20.423Z,65.56
2022-10-11T02:27:48.724Z,65.04
2022-10-11T02:30:16.295Z,65.39
2022-10-11T02:32:45.941Z,65.53
2022-10-11T02:35:13.187Z,65.96
2022-10-11T02:37:57.662Z,67.57
2022-10-11T02:40:37.717Z,66.40
2022-10-11T02:43:36.711Z,67.49
2022-10-11T02:46:05.488Z,68.79
2022-10-11T02:48:33.653Z,66.59
2022-10-11T02:51:00.319Z,66.52
2022-10-11T02:53:27.273Z,67.00
2022-10-11T02:55:56.043Z,68.34
2022-10-11T02:58:23.839Z,67.87
2022-10-11T03:00:50.517Z,67.99
2022-10-11T03:03:17.132Z,66.30
2022-10-11T03:05:44.068Z,65.44
2022-10-11T03:08:14.013Z,64.90
2022-10-11T03:10:41.348Z,64.55
2022-10-11T03:13:08.340Z,65.33
2022-10-11T03:15:35.299Z,65.42
2022-10-11T03:18:02.092Z,64.39
2022-10-11T03:20:28.703Z,64.38
2022-10-11T03:22:55.654Z,64.13
2022-10-11T03:25:22.252Z,63.64
2022-10-11T03:27:49.068Z,63.73
2022-10-11T03:30:18.280Z,63.47
2022-10-11T03:32:45.228Z,63.46
2022-10-11T03:35:11.913Z,63.46
2022-10-11T03:37:38.528Z,63.36
2022-10-11T03:40:08.313Z,63.21
2022-10-11T03:42:35.799Z,65.55
2022-10-11T03:45:05.068Z,64.85
2022-10-11T03:47:32.150Z,65.74
2022-10-11T03:49:58.778Z,65.59
2022-10-11T03:52:25.470Z,64.85
2022-10-11T03:54:52.282Z,64.79
2022-10-11T03:57:19.372Z,64.32
2022-10-11T03:59:45.957Z,64.90
2022-10-11T04:02:12.648Z,64.54
2022-10-11T04:04:39.383Z,65.15
2022-10-11T04:07:06.199Z,65.93
2022-10-11T04:09:32.795Z,67.44
2022-10-11T04:11:59.387Z,67.02
2022-10-11T04:14:26.534Z,66.37
2022-10-11T04:16:55.558Z,66.42
2022-10-11T04:19:24.006Z,67.86
2022-10-11T04:21:50.696Z,68.00
2022-10-11T04:24:17.307Z,70.61
2022-10-11T04:26:43.898Z,71.23
2022-10-11T04:29:10.460Z,70.27
2022-10-11T04:31:37.071Z,71.35
2022-10-11T04:34:03.836Z,71.45
2022-10-11T04:36:32.888Z,71.55
2022-10-11T04:39:01.654Z,72.53
2022-10-11T04:41:29.424Z,71.54
2022-10-11T04:43:56.207Z,71.79
2022-10-11T04:46:23.123Z,74.30
2022-10-11T04:48:49.939Z,75.26
2022-10-11T04:51:16.703Z,74.65
2022-10-11T04:53:43.329Z,74.40
2022-10-11T04:56:15.094Z,75.34
2022-10-11T04:58:41.891Z,75.61
2022-10-11T05:01:09.445Z,74.24
2022-10-11T05:03:36.439Z,74.76
2022-10-11T05:06:05.859Z,72.63
2022-10-11T05:08:33.345Z,72.94
2022-10-11T05:11:05.789Z,70.87
2022-10-11T05:13:33.811Z,69.84
2022-10-11T05:16:00.859Z,69.98
2022-10-11T05:18:28.354Z,69.53
2022-10-11T05:21:07.259Z,69.97
2022-10-11T05:23:36.031Z,72.42
2022-10-11T05:26:03.764Z,71.89
2022-10-11T05:28:30.802Z,70.04
2022-10-11T05:30:57.528Z,69.59
2022-10-11T05:33:24.763Z,69.40
2022-10-11T05:35:51.375Z,69.38
2022-10-11T05:38:18.382Z,68.20
2022-10-11T05:40:45.260Z,68.37
2022-10-11T05:43:12.258Z,68.46
2022-10-11T05:45:40.257Z,68.23
2022-10-11T05:48:07.054Z,67.94
2022-10-11T05:50:33.924Z,68.16
2022-10-11T05:53:00.640Z,67.96
2022-10-11T05:55:27.964Z,68.90
2022-10-11T05:57:55.998Z,68.56
2022-10-11T06:00:24.288Z,68.67
2022-10-11T06:02:50.860Z,68.25
2022-10-11T06:05:17.546Z,68.19
2022-10-11T06:07:44.752Z,68.80
2022-10-11T06:10:12.935Z,69.59
2022-10-11T06:12:39.510Z,69.51
2022-10-11T06:15:07.526Z,69.73
2022-10-11T06:17:34.466Z,68.61
2022-10-11T06:20:01.093Z,68.63
2022-10-11T06:22:27.726Z,68.42
2022-10-11T06:24:54.323Z,68.99
2022-10-11T06:27:20.941Z,68.41
2022-10-11T06:29:47.543Z,69.10
2022-10-11T06:32:14.117Z,67.86
2022-10-11T06:34:40.712Z,67.77
2022-10-11T06:37:07.409Z,67.45
2022-10-11T06:39:35.011Z,67.65
2022-10-11T06:42:01.880Z,67.65
2022-10-11T06:44:28.601Z,68.87
2022-10-11T06:46:55.182Z,68.11
2022-10-11T06:49:23.436Z,68.51
2022-10-11T06:51:50.691Z,70.10
2022-10-11T06:54:17.290Z,70.05
2022-10-11T06:56:45.691Z,71.77
2022-10-11T06:59:13.528Z,70.25
2022-10-11T07:01:40.294Z,72.19
2022-10-11T07:04:08.182Z,73.13
2022-10-11T07:06:38.143Z,70.50
2022-10-11T07:09:05.854Z,70.56
2022-10-11T07:11:32.962Z,71.14
2022-10-11T07:14:07.535Z,71.22
2022-10-11T07:16:37.762Z,70.04
2022-10-11T07:19:06.488Z,70.31
2022-10-11T07:21:34.900Z,71.24
2022-10-11T07:24:02.107Z,70.17
2022-10-11T07:26:33.847Z,69.28
2022-10-11T07:29:04.548Z,67.98
2022-10-11T07:31:31.740Z,69.31
2022-10-11T07:33:58.301Z,69.57
2022-10-11T07:36:25.565Z,68.95
2022-10-11T07:38:52.181Z,68.33
2022-10-11T07:41:18.926Z,68.32
2022-10-11T07:43:47.867Z,68.06
2022-10-11T07:46:14.573Z,67.74
2022-10-11T07:48:41.746Z,67.98
2022-10-11T07:51:17.678Z,67.54
2022-10-11T07:53:47.057Z,67.47
2022-10-11T07:56:16.547Z,67.59
2022-10-11T07:58:43.710Z,67.38
2022-10-11T08:01:11.608Z,67.25
2022-10-11T08:03:38.819Z,68.07
2022-10-11T08:06:08.509Z,68.22
2022-10-11T08:08:36.570Z,67.46
2022-10-11T08:11:03.904Z,66.99
2022-10-11T08:13:30.803Z,66.91
2022-10-11T08:15:57.527Z,66.23
2022-10-11T08:18:24.463Z,67.00
2022-10-11T08:20:51.099Z,67.61
2022-10-11T08:23:18.306Z,67.35
2022-10-11T08:25:46.905Z,66.67
2022-10-11T08:28:17.220Z,66.10
2022-10-11T08:30:49.724Z,66.78
2022-10-11T08:33:21.041Z,66.39
2022-10-11T08:35:48.558Z,66.03
2022-10-11T08:38:15.698Z,66.53
2022-10-11T08:40:52.143Z,65.82
2022-10-11T08:43:32.185Z,68.62
2022-10-11T08:46:03.160Z,68.90
2022-10-11T08:48:36.762Z,67.33
2022-10-11T08:51:15.069Z,67.93
2022-10-11T08:54:07.972Z,68.85
2022-10-11T08:56:39.964Z,70.15
2022-10-11T08:59:12.639Z,70.32
2022-10-11T09:01:54.557Z,72.15
2022-10-11T09:04:21.234Z,72.99
2022-10-11T09:07:05.229Z,73.89
2022-10-11T09:09:49.858Z,75.56
2022-10-11T09:12:33.520Z,75.98
2022-10-11T09:15:20.643Z,77.22
2022-10-11T09:18:16.310Z,77.79
2022-10-11T09:20:57.031Z,77.12
2022-10-11T09:23:39.191Z,76.92
2022-10-11T09:26:07.599Z,77.10
2022-10-11T09:28:45.838Z,75.69
2022-10-11T09:31:12.454Z,76.10
2022-10-11T09:33:47.261Z,75.55
2022-10-11T09:36:22.832Z,76.68
2022-10-11T09:38:56.509Z,75.32
2022-10-11T09:41:47.394Z,73.85
2022-10-11T09:44:22.479Z,73.15
2022-10-11T09:46:51.196Z,72.35
2022-10-11T09:49:21.686Z,71.64
2022-10-11T09:51:57.535Z,72.83
2022-10-11T09:54:44.508Z,72.23
2022-10-11T09:57:25.312Z,72.86
2022-10-11T10:00:00.327Z,72.54
2022-10-11T10:02:29.136Z,71.96
2022-10-11T10:05:09.425Z,71.65
2022-10-11T10:07:40.459Z,72.43
2022-10-11T10:10:29.931Z,73.02
2022-10-11T10:12:59.522Z,72.67
2022-10-11T10:15:37.395Z,71.07
2022-10-11T10:18:10.581Z,71.21
2022-10-11T10:20:38.140Z,70.61
2022-10-11T10:23:22.278Z,70.76
2022-10-11T10:25:51.703Z,71.04
2022-10-11T10:28:23.074Z,70.38
2022-10-11T10:30:58.195Z,70.48
2022-10-11T10:33:27.243Z,70.31
2022-10-11T10:36:03.272Z,69.79
2022-10-11T10:38:37.522Z,70.17
2022-10-11T10:41:09.090Z,70.26
2022-10-11T10:43:38.417Z,70.19
2022-10-11T10:46:30.021Z,69.04
2022-10-11T10:49:53.602Z,67.89
2022-10-11T10:52:35.199Z,69.73
2022-10-11T10:55:23.981Z,68.54
2022-10-11T10:58:12.893Z,67.99
2022-10-11T11:00:48.659Z,68.43
2022-10-11T11:03:24.073Z,67.27
2022-10-11T11:06:08.834Z,66.06
2022-10-11T11:09:06.832Z,65.41
2022-10-11T11:11:42.964Z,66.77
2022-10-11T11:14:28.019Z,65.63
2022-10-11T11:17:15.735Z,64.21
2022-10-11T11:19:54.513Z,63.86
2022-10-11T11:22:43.416Z,63.80
2022-10-11T11:25:24.382Z,63.50
2022-10-11T11:28:09.217Z,62.41
2022-10-11T11:31:11.609Z,60.85
2022-10-11T11:33:43.109Z,60.92
2022-10-11T11:36:18.444Z,60.66
2022-10-11T11:38:47.318Z,58.09
2022-10-11T11:41:34.110Z,59.61
2022-10-11T11:44:28.262Z,58.82
2022-10-11T11:47:03.747Z,58.36
2022-10-11T11:49:47.686Z,56.63
2022-10-11T11:52:41.765Z,58.01
2022-10-11T11:55:49.250Z,56.82
2022-10-11T11:58:25.573Z,57.92
2022-10-11T12:00:58.999Z,57.13
2022-10-11T12:03:31.323Z,57.69
2022-10-11T12:06:19.423Z,58.09
2022-10-11T12:09:16.296Z,59.22
2022-10-11T12:11:55.794Z,58.91
2022-10-11T12:14:34.605Z,58.28
2022-10-11T12:17:07.405Z,57.73
2022-10-11T12:19:35.544Z,58.58
2022-10-11T12:22:27.782Z,58.69
2022-10-11T12:25:21.027Z,58.37
2022-10-11T12:27:52.063Z,58.57
2022-10-11T12:30:53.527Z,57.39
2022-10-11T12:33:45.300Z,56.37
2022-10-11T12:36:22.955Z,57.15
2022-10-11T12:39:18.549Z,56.48
2022-10-11T12:42:19.090Z,56.40
2022-10-11T12:45:12.127Z,57.00
2022-10-11T12:47:48.506Z,56.96
2022-10-11T12:50:54.274Z,57.29
2022-10-11T12:54:21.902Z,56.23
2022-10-11T12:57:21.570Z,57.13
2022-10-11T12:59:49.281Z,57.94
2022-10-11T13:02:21.912Z,58.13
2022-10-11T13:04:48.839Z,58.30
2022-10-11T13:07:23.519Z,58.23
2022-10-11T13:09:54.087Z,57.15
2022-10-11T13:12:26.219Z,57.42
2022-10-11T13:15:12.099Z,57.51
2022-10-11T13:17:40.758Z,57.22
2022-10-11T13:20:37.497Z,57.62
2022-10-11T13:23:34.376Z,57.67
2022-10-11T13:26:02.078Z,57.93
2022-10-11T13:28:34.139Z,58.54
2022-10-11T13:31:04.638Z,58.55
2022-10-11T13:33:35.960Z,59.30
2022-10-11T13:36:05.885Z,59.27
2022-10-11T13:38:35.915Z,59.42
2022-10-11T13:41:08.790Z,59.09
2022-10-11T13:43:37.543Z,58.57
2022-10-11T13:46:05.365Z,59.21
2022-10-11T13:48:38.737Z,59.54
2022-10-11T13:51:26.709Z,60.59
2022-10-11T13:54:01.772Z,61.37
2022-10-11T13:56:32.659Z,61.90
2022-10-11T13:59:00.576Z,62.20
2022-10-11T14:01:48.183Z,62.31
2022-10-11T14:04:17.219Z,62.25
2022-10-11T14:07:02.369Z,62.20
2022-10-11T14:09:30.478Z,63.09
2022-10-11T14:12:26.140Z,63.86
2022-10-11T14:14:53.024Z,63.72
2022-10-11T14:17:24.706Z,64.95
2022-10-11T14:20:11.498Z,65.33
2022-10-11T14:22:38.457Z,65.93
2022-10-11T14:25:05.394Z,65.17
2022-10-11T14:27:32.094Z,65.69
2022-10-11T14:30:25.221Z,65.31
2022-10-11T14:32:47.586Z,65.22
2022-10-11T14:35:20.973Z,65.61
2022-10-11T14:37:47.893Z,64.99
2022-10-11T14:40:18.691Z,65.04
2022-10-11T14:42:45.586Z,65.36
2022-10-11T14:45:12.212Z,65.12
2022-10-11T14:47:42.924Z,64.95
2022-10-11T14:50:35.147Z,65.30
2022-10-11T14:53:03.010Z,65.80
2022-10-11T14:55:31.111Z,65.24
2022-10-11T14:57:58.163Z,65.12
2022-10-11T15:00:28.636Z,66.10
2022-10-11T15:02:56.030Z,65.67
2022-10-11T15:05:24.362Z,65.74
2022-10-11T15:07:51.446Z,65.42
2022-10-11T15:10:24.370Z,65.51
2022-10-11T15:12:52.626Z,65.80
2022-10-11T15:15:22.779Z,65.66
2022-10-11T15:17:55.739Z,65.32
2022-10-11T15:20:38.436Z,65.26
2022-10-11T15:23:07.763Z,65.72
2022-10-11T15:25:34.721Z,65.91
2022-10-11T15:28:01.369Z,65.91
2022-10-11T15:30:41.284Z,65.65
2022-10-11T15:33:09.191Z,66.05
2022-10-11T15:35:36.010Z,66.17
2022-10-11T15:38:03.554Z,66.41
2022-10-11T15:40:36.129Z,66.98
2022-10-11T15:43:03.796Z,66.46
2022-10-11T15:45:31.027Z,66.32
2022-10-11T15:47:58.157Z,66.06
2022-10-11T15:50:34.575Z,65.45
2022-10-11T15:53:02.840Z,64.97
2022-10-11T15:55:30.359Z,64.83
2022-10-11T15:57:57.405Z,64.70
2022-10-11T16:00:25.539Z,64.06
2022-10-11T16:02:53.182Z,64.29
2022-10-11T16:05:24.795Z,65.17
2022-10-11T16:07:52.375Z,64.36
2022-10-11T16:10:19.324Z,63.29
2022-10-11T16:12:46.281Z,62.71
2022-10-11T16:15:13.690Z,62.72
2022-10-11T16:17:40.335Z,62.16
2022-10-11T16:20:07.730Z,62.51
2022-10-11T16:22:35.115Z,62.28
2022-10-11T16:25:02.734Z,61.98
2022-10-11T16:27:29.576Z,62.01
2022-10-11T16:29:56.440Z,61.74
2022-10-11T16:32:24.324Z,61.95
2022-10-11T16:34:51.075Z,61.93
2022-10-11T16:37:17.794Z,61.98
2022-10-11T16:39:44.745Z,62.55
2022-10-11T16:42:11.540Z,62.11
2022-10-11T16:44:39.359Z,62.80
2022-10-11T16:47:06.847Z,61.97
2022-10-11T16:49:33.606Z,62.21
2022-10-11T16:52:02.340Z,62.21
2022-10-11T16:54:30.370Z,62.30
2022-10-11T16:56:58.209Z,62.45
2022-10-11T16:59:25.274Z,62.28
2022-10-11T17:01:51.993Z,62.01
2022-10-11T17:04:18.700Z,61.41
2022-10-11T17:06:45.392Z,61.55
2022-10-11T17:09:12.227Z,62.25
2022-10-11T17:11:39.026Z,62.81
2022-10-11T17:14:06.211Z,62.09
2022-10-11T17:16:33.548Z,61.85
2022-10-11T17:19:00.364Z,62.07
2022-10-11T17:21:27.094Z,61.35
2022-10-11T17:23:53.905Z,61.07
2022-10-11T17:26:24.909Z,61.19
2022-10-11T17:28:52.175Z,61.34
2022-10-11T17:31:19.117Z,64.40
2022-10-11T17:33:45.817Z,63.78
2022-10-11T17:36:17.030Z,63.29
2022-10-11T17:38:43.729Z,63.53
2022-10-11T17:41:11.064Z,62.69
2022-10-11T17:43:37.788Z,62.67
2022-10-11T17:46:06.894Z,62.73
2022-10-11T17:48:36.661Z,62.26
2022-10-11T17:51:15.268Z,61.82
2022-10-11T17:53:42.818Z,61.47
2022-10-11T17:56:12.817Z,62.09
2022-10-11T17:58:39.722Z,62.04
2022-10-11T18:01:10.331Z,61.38
2022-10-11T18:03:37.627Z,61.42
2022-10-11T18:06:06.522Z,61.49
2022-10-11T18:08:40.521Z,61.44
2022-10-11T18:11:12.819Z,61.78
2022-10-11T18:13:42.607Z,61.65
2022-10-11T18:16:10.594Z,61.28
2022-10-11T18:18:37.875Z,60.90
2022-10-11T18:21:04.791Z,61.11
2022-10-11T18:23:32.535Z,61.17
2022-10-11T18:25:59.112Z,61.83
2022-10-11T18:28:25.740Z,62.32
2022-10-11T18:30:53.256Z,63.60
2022-10-11T18:33:19.895Z,62.79
2022-10-11T18:35:46.492Z,62.17
2022-10-11T18:38:13.152Z,62.21
2022-10-11T18:40:44.741Z,62.03
2022-10-11T18:43:13.545Z,62.32
2022-10-11T18:45:40.116Z,63.12
2022-10-11T18:48:08.656Z,62.95
2022-10-11T18:50:35.675Z,62.66
2022-10-11T18:53:02.429Z,64.64
2022-10-11T18:55:29.081Z,64.37
2022-10-11T18:57:55.694Z,68.27
2022-10-11T19:00:40.190Z,67.63
2022-10-11T19:03:07.677Z,65.05
2022-10-11T19:05:34.254Z,64.50
2022-10-11T19:08:00.928Z,64.57
2022-10-11T19:10:28.149Z,64.14
2022-10-11T19:12:54.736Z,63.98
2022-10-11T19:15:24.185Z,63.89
2022-10-11T19:17:54.616Z,63.37
2022-10-11T19:20:21.227Z,64.17
2022-10-11T19:22:47.844Z,64.61
2022-10-11T19:25:14.544Z,65.67
2022-10-11T19:27:41.153Z,65.39
2022-10-11T19:30:08.381Z,64.22
2022-10-11T19:32:34.972Z,64.20
2022-10-11T19:35:01.548Z,64.07
2022-10-11T19:37:28.142Z,63.96
2022-10-11T19:39:54.690Z,63.91
2022-10-11T19:42:21.283Z,63.83
2022-10-11T19:44:47.855Z,63.47
2022-10-11T19:47:16.075Z,63.48
2022-10-11T19:49:42.651Z,63.65
2022-10-11T19:52:09.603Z,64.09
2022-10-11T19:54:36.192Z,64.44
2022-10-11T19:57:02.803Z,64.92
2022-10-11T19:59:29.438Z,66.03
2022-10-11T20:01:56.045Z,64.51
2022-10-11T20:04:50.473Z,64.23
2022-10-11T20:07:10.043Z,63.92
2022-10-11T20:09:36.777Z,64.13
2022-10-11T20:12:03.466Z,63.93
2022-10-11T20:14:30.057Z,63.75
2022-10-11T20:16:56.667Z,64.46
2022-10-11T20:19:29.342Z,64.76
2022-10-11T20:21:57.498Z,67.07
2022-10-11T20:24:24.175Z,66.49
2022-10-11T20:26:50.763Z,65.27
2022-10-11T20:29:17.324Z,64.70
2022-10-11T20:31:43.956Z,64.72
2022-10-11T20:34:11.167Z,64.66
2022-10-11T20:36:37.903Z,65.55
2022-10-11T20:39:05.866Z,65.40
2022-10-11T20:41:37.223Z,66.02
2022-10-11T20:44:04.824Z,67.43
2022-10-11T20:46:33.660Z,67.02
2022-10-11T20:49:02.907Z,67.34
2022-10-11T20:51:31.161Z,68.42
2022-10-11T20:53:59.242Z,66.87
2022-10-11T20:56:26.759Z,66.36
2022-10-11T20:58:55.248Z,65.98
2022-10-11T21:01:34.479Z,66.65
2022-10-11T21:04:02.251Z,65.78
2022-10-11T21:06:30.655Z,66.03
2022-10-11T21:08:59.142Z,65.70
2022-10-11T21:11:31.283Z,66.16
2022-10-11T21:14:03.513Z,66.17
2022-10-11T21:16:30.216Z,66.21
2022-10-11T21:18:58.423Z,66.27
2022-10-11T21:21:25.987Z,66.04
2022-10-11T21:23:57.037Z,67.16
2022-10-11T21:26:23.735Z,66.79
2022-10-11T21:28:50.726Z,66.99
2022-10-11T21:31:19.105Z,68.79
2022-10-11T21:33:46.107Z,69.71
2022-10-11T21:36:21.191Z,69.00
2022-10-11T21:38:48.751Z,68.44
2022-10-11T21:41:18.294Z,68.74
2022-10-11T21:43:45.075Z,68.35
2022-10-11T21:46:18.924Z,67.84
2022-10-11T21:48:46.028Z,67.10
2022-10-11T21:51:27.778Z,66.66
2022-10-11T21:53:56.200Z,66.89
2022-10-11T21:56:23.102Z,67.69
2022-10-11T21:58:50.629Z,67.02
2022-10-11T22:01:18.715Z,66.85
2022-10-11T22:03:46.189Z,67.19
2022-10-11T22:06:13.451Z,67.17
2022-10-11T22:08:40.899Z,67.13
2022-10-11T22:11:08.971Z,68.15
2022-10-11T22:13:35.864Z,67.62
2022-10-11T22:16:12.842Z,67.01
2022-10-11T22:18:41.332Z,67.13
2022-10-11T22:21:13.414Z,69.29
2022-10-11T22:23:41.355Z,68.33
2022-10-11T22:26:13.912Z,67.68
2022-10-11T22:28:41.005Z,67.90
2022-10-11T22:31:09.415Z,68.40
2022-10-11T22:33:36.437Z,68.21
2022-10-11T22:36:05.392Z,68.19
2022-10-11T22:38:32.000Z,68.56
2022-10-11T22:40:59.005Z,68.86
2022-10-11T22:43:25.568Z,69.87
2022-10-11T22:45:52.171Z,70.01
2022-10-11T22:48:18.764Z,70.15
2022-10-11T22:50:45.353Z,70.08
2022-10-11T22:53:13.269Z,69.94
2022-10-11T22:55:40.411Z,71.11
2022-10-11T22:58:07.022Z,69.64
2022-10-11T23:00:34.249Z,70.11
2022-10-11T23:03:00.851Z,71.09
2022-10-11T23:05:27.523Z,72.10
2022-10-11T23:07:54.128Z,70.52
2022-10-11T23:10:20.825Z,71.41
2022-10-11T23:12:47.462Z,71.32
2022-10-11T23:15:15.280Z,70.45
2022-10-11T23:17:42.413Z,70.54
2022-10-11T23:20:09.745Z,69.89
2022-10-11T23:22:36.338Z,69.86
2022-10-11T23:25:03.006Z,70.50
2022-10-11T23:27:30.203Z,70.68
2022-10-11T23:29:56.950Z,70.35
2022-10-11T23:32:24.281Z,70.81
2022-10-11T23:34:51.647Z,70.39
2022-10-11T23:37:18.397Z,71.16
2022-10-11T23:39:45.277Z,71.93
2022-10-11T23:42:11.922Z,70.64
2022-10-11T23:44:38.498Z,70.70
2022-10-11T23:47:05.073Z,69.72
2022-10-11T23:49:31.637Z,70.54
2022-10-11T23:51:58.269Z,69.56
2022-10-11T23:54:24.960Z,69.28
2022-10-11T23:56:51.545Z,69.86
2022-10-11T23:59:18.135Z,70.27
